createdAt,value
2019-03-12T00:01:41.708Z,-1.40
2019-03-12T00:03:47.207Z,-1.70
2019-03-12T00:05:55.826Z,-1.60
2019-03-12T00:08:01.331Z,-1.50
2019-03-12T00:10:09.689Z,-1.40
2019-03-12T00:12:15.144Z,-1.50
2019-03-12T00:14:20.665Z,-1.40
2019-03-12T00:16:26.175Z,-1.40
2019-03-12T00:18:31.670Z,-1.50
2019-03-12T00:20:37.117Z,-1.40
2019-03-12T00:22:42.682Z,-1.60
2019-03-12T00:24:48.138Z,-1.70
2019-03-12T00:26:53.624Z,-1.50
2019-03-12T00:28:59.127Z,-1.50
2019-03-12T00:31:04.640Z,-1.50
2019-03-12T00:33:10.283Z,-1.90
2019-03-12T00:35:15.792Z,-1.90
2019-03-12T00:37:21.206Z,-2.00
2019-03-12T00:39:26.767Z,-1.90
2019-03-12T00:41:32.291Z,-1.80
2019-03-12T00:43:37.731Z,-1.90
2019-03-12T00:45:43.203Z,-2.10
2019-03-12T00:47:48.698Z,-2.30
2019-03-12T00:49:54.125Z,-2.30
2019-03-12T00:51:59.559Z,-2.10
2019-03-12T00:54:04.992Z,-2.30
2019-03-12T00:56:10.482Z,-2.20
2019-03-12T00:58:15.911Z,-2.00
2019-03-12T01:00:21.554Z,-2.30
2019-03-12T01:02:26.987Z,-2.40
2019-03-12T01:04:32.395Z,-2.30
2019-03-12T01:06:37.839Z,-2.30
2019-03-12T01:08:43.237Z,-2.20
2019-03-12T01:10:48.850Z,-2.40
2019-03-12T01:12:54.401Z,-2.30
2019-03-12T01:14:59.923Z,-2.10
2019-03-12T01:17:05.498Z,-2.20
2019-03-12T01:19:10.922Z,-2.20
2019-03-12T01:21:16.378Z,-2.20
2019-03-12T01:23:21.838Z,-2.20
2019-03-12T01:25:27.258Z,-2.20
2019-03-12T01:27:32.675Z,-2.20
2019-03-12T01:29:38.113Z,-2.20
2019-03-12T01:31:43.561Z,-2.00
2019-03-12T01:33:52.066Z,-2.20
2019-03-12T01:35:57.522Z,-2.20
2019-03-12T01:38:02.935Z,-2.40
2019-03-12T01:40:09.789Z,-2.60
2019-03-12T01:42:15.387Z,-2.60
2019-03-12T01:44:20.866Z,-2.60
2019-03-12T01:46:26.290Z,-2.60
2019-03-12T01:48:31.699Z,-2.60
2019-03-12T01:50:37.179Z,-2.70
2019-03-12T01:52:42.704Z,-2.70
2019-03-12T01:54:49.243Z,-2.70
2019-03-12T01:56:54.690Z,-2.70
2019-03-12T01:59:00.098Z,-2.80
2019-03-12T02:01:05.531Z,-2.70
2019-03-12T02:03:10.978Z,-2.60
2019-03-12T02:05:16.492Z,-2.70
2019-03-12T02:07:21.962Z,-2.70
2019-03-12T02:09:28.916Z,-2.70
2019-03-12T02:11:34.415Z,-3.00
2019-03-12T02:13:39.944Z,-3.10
2019-03-12T02:15:45.442Z,-3.20
2019-03-12T02:17:53.190Z,-3.20
2019-03-12T02:19:58.754Z,-3.30
2019-03-12T02:22:04.316Z,-3.30
2019-03-12T02:24:12.479Z,-3.40
2019-03-12T02:26:17.986Z,-3.50
2019-03-12T02:28:23.449Z,-3.50
2019-03-12T02:30:28.967Z,-3.40
2019-03-12T02:32:34.403Z,-3.50
2019-03-12T02:34:39.833Z,-3.80
2019-03-12T02:36:45.258Z,-3.50
2019-03-12T02:38:51.905Z,-3.40
2019-03-12T02:40:57.329Z,-3.50
2019-03-12T02:43:02.811Z,-3.60
2019-03-12T02:45:09.085Z,-3.80
2019-03-12T02:47:14.566Z,-3.80
2019-03-12T02:49:20.007Z,-3.80
2019-03-12T02:51:25.526Z,-3.70
2019-03-12T02:53:30.965Z,-3.60
2019-03-12T02:55:36.466Z,-3.80
2019-03-12T02:57:48.047Z,-3.90
2019-03-12T02:59:54.798Z,-4.00
2019-03-12T03:02:00.224Z,-3.80
2019-03-12T03:04:05.720Z,-3.70
2019-03-12T03:06:19.962Z,-3.70
2019-03-12T03:08:28.932Z,-3.80
2019-03-12T03:10:34.531Z,-3.50
2019-03-12T03:12:40.082Z,-3.50
2019-03-12T03:14:45.717Z,-3.70
2019-03-12T03:16:52.404Z,-3.80
2019-03-12T03:18:57.821Z,-3.60
2019-03-12T03:21:03.398Z,-3.50
2019-03-12T03:23:09.028Z,-3.50
2019-03-12T03:25:15.545Z,-3.30
2019-03-12T03:27:21.092Z,-3.30
2019-03-12T03:29:26.522Z,-3.40
2019-03-12T03:31:31.954Z,-3.50
2019-03-12T03:33:37.493Z,-3.50
2019-03-12T03:35:42.984Z,-3.50
2019-03-12T03:37:48.723Z,-3.50
2019-03-12T03:39:54.246Z,-3.70
2019-03-12T03:41:59.708Z,-3.70
2019-03-12T03:44:05.345Z,-3.70
2019-03-12T03:46:11.027Z,-3.70
2019-03-12T03:48:16.624Z,-3.80
2019-03-12T03:50:22.172Z,-3.90
2019-03-12T03:52:27.569Z,-3.90
2019-03-12T03:54:32.999Z,-4.00
2019-03-12T03:56:38.449Z,-4.20
2019-03-12T03:58:43.891Z,-4.10
2019-03-12T04:00:49.310Z,-4.10
2019-03-12T04:02:55.897Z,-3.90
2019-03-12T04:05:01.397Z,-3.80
2019-03-12T04:07:06.888Z,-3.80
2019-03-12T04:09:12.324Z,-4.00
2019-03-12T04:11:17.822Z,-4.00
2019-03-12T04:13:23.268Z,-4.10
2019-03-12T04:15:28.776Z,-4.00
2019-03-12T04:17:34.363Z,-4.00
2019-03-12T04:19:40.049Z,-4.20
2019-03-12T04:21:45.471Z,-4.10
2019-03-12T04:23:50.930Z,-4.20
2019-03-12T04:25:56.475Z,-4.10
2019-03-12T04:28:02.119Z,-4.10
2019-03-12T04:30:08.293Z,-4.40
2019-03-12T04:32:13.801Z,-4.50
2019-03-12T04:34:33.740Z,-4.50
2019-03-12T04:36:39.240Z,-4.40
2019-03-12T04:38:44.711Z,-4.40
2019-03-12T04:40:52.053Z,-4.40
2019-03-12T04:42:57.502Z,-4.20
2019-03-12T04:45:04.434Z,-4.30
2019-03-12T04:47:09.890Z,-4.40
2019-03-12T04:49:15.366Z,-4.40
2019-03-12T04:51:20.829Z,-4.30
2019-03-12T04:53:26.264Z,-4.40
2019-03-12T04:55:31.742Z,-4.40
2019-03-12T04:57:37.247Z,-4.40
2019-03-12T04:59:42.847Z,-4.40
2019-03-12T05:01:48.295Z,-4.50
2019-03-12T05:03:53.838Z,-4.50
2019-03-12T05:05:59.302Z,-4.40
2019-03-12T05:08:04.791Z,-4.40
2019-03-12T05:10:13.419Z,-4.50
2019-03-12T05:12:18.983Z,-4.40
2019-03-12T05:14:29.117Z,-4.50
2019-03-12T05:16:34.598Z,-4.60
2019-03-12T05:18:40.026Z,-4.60
2019-03-12T05:20:45.512Z,-4.50
2019-03-12T05:22:51.030Z,-4.40
2019-03-12T05:24:56.519Z,-4.60
2019-03-12T05:27:02.067Z,-4.50
2019-03-12T05:29:07.587Z,-4.40
2019-03-12T05:31:13.135Z,-4.50
2019-03-12T05:33:18.590Z,-4.70
2019-03-12T05:35:24.015Z,-4.60
2019-03-12T05:37:29.434Z,-4.50
2019-03-12T05:39:34.911Z,-4.60
2019-03-12T05:41:40.318Z,-4.50
2019-03-12T05:43:45.739Z,-4.40
2019-03-12T05:45:51.246Z,-4.20
2019-03-12T05:48:00.828Z,-4.20
2019-03-12T05:50:06.412Z,-4.40
2019-03-12T05:52:12.700Z,-4.30
2019-03-12T05:54:18.262Z,-4.20
2019-03-12T05:56:24.109Z,-4.00
2019-03-12T05:58:29.558Z,-4.00
2019-03-12T06:00:35.602Z,-4.00
2019-03-12T06:02:41.826Z,-3.80
2019-03-12T06:04:47.528Z,-3.70
2019-03-12T06:06:53.514Z,-3.60
2019-03-12T06:08:59.282Z,-3.60
2019-03-12T06:11:08.397Z,-3.60
2019-03-12T06:15:48.856Z,-3.40
2019-03-12T06:17:54.960Z,-3.30
2019-03-12T06:20:00.484Z,-3.10
2019-03-12T06:22:06.554Z,-2.80
2019-03-12T06:24:12.244Z,-2.60
2019-03-12T06:26:17.805Z,-2.30
2019-03-12T06:28:23.819Z,-2.10
2019-03-12T06:30:31.569Z,-1.90
2019-03-12T06:32:46.768Z,-1.90
2019-03-12T06:35:05.571Z,-1.90
2019-03-12T06:37:39.139Z,-2.00
2019-03-12T06:40:04.295Z,-1.90
2019-03-12T06:42:34.498Z,-1.60
2019-03-12T06:45:04.651Z,-1.30
2019-03-12T06:47:22.427Z,-1.10
2019-03-12T06:49:49.832Z,-0.90
2019-03-12T06:52:14.310Z,-0.70
2019-03-12T06:54:38.746Z,-0.70
2019-03-12T06:56:50.218Z,-0.70
2019-03-12T06:59:26.862Z,-0.50
2019-03-12T07:01:39.022Z,-0.20
2019-03-12T07:04:12.214Z,2.40
2019-03-12T07:06:36.639Z,4.40
2019-03-12T07:09:01.000Z,6.00
2019-03-12T07:11:28.175Z,7.10
2019-03-12T07:13:44.105Z,8.20
2019-03-12T07:16:08.550Z,9.20
2019-03-12T07:18:33.092Z,10.90
2019-03-12T07:20:48.422Z,11.30
2019-03-12T07:23:03.913Z,11.20
2019-03-12T07:25:27.023Z,12.50
2019-03-12T07:27:37.594Z,12.40
2019-03-12T07:29:58.950Z,13.60
2019-03-12T07:32:29.062Z,14.90
2019-03-12T07:34:51.627Z,15.10
2019-03-12T07:37:27.738Z,13.20
2019-03-12T07:39:41.086Z,13.40
2019-03-12T07:42:05.238Z,12.90
2019-03-12T07:44:32.360Z,13.60
2019-03-12T07:46:50.310Z,15.20
2019-03-12T07:49:13.110Z,16.10
2019-03-12T07:51:43.531Z,17.30
2019-03-12T07:54:22.697Z,16.10
2019-03-12T07:56:40.986Z,17.50
2019-03-12T07:59:11.208Z,17.40
2019-03-12T08:01:26.132Z,16.10
2019-03-12T08:03:58.934Z,15.10
2019-03-12T08:06:12.362Z,15.20
2019-03-12T08:08:29.909Z,14.20
2019-03-12T08:10:52.651Z,14.40
2019-03-12T08:13:15.707Z,16.50
2019-03-12T08:15:39.886Z,16.50
2019-03-12T08:18:06.921Z,15.30
2019-03-12T08:20:36.907Z,15.90
2019-03-12T08:22:54.475Z,16.60
2019-03-12T08:25:18.368Z,18.40
2019-03-12T08:27:42.566Z,17.70
2019-03-12T08:30:09.430Z,18.00
2019-03-12T08:32:36.367Z,17.30
2019-03-12T08:35:03.279Z,17.40
2019-03-12T08:37:22.323Z,18.00
2019-03-12T08:39:38.008Z,17.30
2019-03-12T08:41:56.038Z,18.30
2019-03-12T08:44:05.535Z,16.40
2019-03-12T08:46:47.994Z,15.10
2019-03-12T08:49:01.606Z,15.00
2019-03-12T08:51:19.175Z,13.80
2019-03-12T08:53:45.906Z,13.40
2019-03-12T08:56:15.955Z,14.50
2019-03-12T08:58:38.566Z,14.80
2019-03-12T09:01:02.645Z,14.30
2019-03-12T09:03:19.754Z,15.40
2019-03-12T09:05:46.981Z,14.80
2019-03-12T09:08:14.783Z,15.00
2019-03-12T09:10:28.308Z,16.40
2019-03-12T09:12:50.187Z,14.90
2019-03-12T09:15:13.200Z,15.00
2019-03-12T09:17:31.694Z,15.90
2019-03-12T09:19:50.247Z,14.90
2019-03-12T09:22:20.618Z,15.10
2019-03-12T09:24:47.718Z,14.50
2019-03-12T09:27:14.721Z,13.60
2019-03-12T09:29:37.310Z,13.60
2019-03-12T09:31:48.402Z,15.00
2019-03-12T09:34:08.966Z,14.20
2019-03-12T09:36:48.150Z,14.80
2019-03-12T09:39:04.728Z,14.40
2019-03-12T09:41:22.164Z,15.40
2019-03-12T09:44:02.922Z,15.60
2019-03-12T09:46:25.847Z,14.60
2019-03-12T09:48:43.546Z,15.60
2019-03-12T09:50:54.004Z,15.30
2019-03-12T09:53:23.977Z,14.40
2019-03-12T09:56:00.389Z,14.10
2019-03-12T09:58:24.834Z,13.30
2019-03-12T10:00:48.926Z,14.20
2019-03-12T10:03:16.335Z,14.10
2019-03-12T10:05:43.484Z,13.20
2019-03-12T10:08:10.618Z,13.80
2019-03-12T10:10:38.035Z,13.90
2019-03-12T10:13:14.511Z,15.10
2019-03-12T10:15:42.190Z,14.40
2019-03-12T10:18:21.954Z,15.00
2019-03-12T10:20:44.558Z,14.80
2019-03-12T10:23:10.731Z,15.20
2019-03-12T10:25:33.439Z,15.70
2019-03-12T10:28:00.582Z,17.00
2019-03-12T10:30:40.217Z,16.80
2019-03-12T10:32:55.231Z,17.20
2019-03-12T10:35:08.103Z,15.90
2019-03-12T10:37:38.396Z,16.30
2019-03-12T10:40:12.463Z,15.90
2019-03-12T10:42:25.499Z,15.40
2019-03-12T10:44:39.585Z,15.70
2019-03-12T10:46:53.185Z,15.30
2019-03-12T10:48:59.169Z,15.90
2019-03-12T10:51:04.344Z,17.40
2019-03-12T10:53:09.670Z,16.30
2019-03-12T10:55:14.960Z,16.40
2019-03-12T10:57:21.904Z,16.40
2019-03-12T10:59:27.099Z,17.70
2019-03-12T11:01:32.277Z,17.50
2019-03-12T11:03:37.538Z,17.20
2019-03-12T11:05:46.290Z,16.20
2019-03-12T11:07:49.683Z,16.20
2019-03-12T11:09:54.915Z,17.10
2019-03-12T11:12:00.084Z,17.00
2019-03-12T11:14:05.327Z,17.20
2019-03-12T11:16:10.592Z,18.10
2019-03-12T11:18:15.852Z,15.20
2019-03-12T11:20:21.169Z,16.90
2019-03-12T11:22:26.416Z,17.70
2019-03-12T11:24:31.610Z,17.60
2019-03-12T11:26:36.762Z,16.40
2019-03-12T11:28:41.967Z,14.30
2019-03-12T11:30:47.215Z,15.50
2019-03-12T11:32:52.427Z,17.60
2019-03-12T11:34:57.606Z,17.00
2019-03-12T11:37:02.960Z,16.00
2019-03-12T11:39:08.310Z,16.10
2019-03-12T11:41:13.492Z,17.90
2019-03-12T11:43:18.711Z,16.90
2019-03-12T11:45:35.707Z,17.50
2019-03-12T11:47:30.779Z,17.60
2019-03-12T11:49:36.066Z,18.30
2019-03-12T11:51:41.293Z,20.40
2019-03-12T11:53:46.544Z,19.10
2019-03-12T11:55:51.866Z,19.50
2019-03-12T11:57:57.019Z,19.30
2019-03-12T12:00:02.363Z,18.20
2019-03-12T12:02:07.826Z,18.00
2019-03-12T12:04:13.315Z,17.80
2019-03-12T12:06:18.551Z,18.80
2019-03-12T12:08:23.855Z,16.90
2019-03-12T12:10:29.075Z,18.20
2019-03-12T12:12:34.208Z,19.70
2019-03-12T12:14:39.532Z,19.90
2019-03-12T12:16:44.766Z,19.40
2019-03-12T12:18:51.667Z,20.50
2019-03-12T12:20:56.830Z,20.80
2019-03-12T12:23:02.009Z,19.70
2019-03-12T12:25:08.090Z,18.80
2019-03-12T12:27:13.466Z,17.50
2019-03-12T12:29:18.646Z,17.10
2019-03-12T12:31:23.886Z,18.60
2019-03-12T12:33:29.168Z,17.20
2019-03-12T12:35:34.500Z,16.90
2019-03-12T12:37:39.727Z,17.90
2019-03-12T12:39:44.939Z,19.00
2019-03-12T12:41:50.100Z,19.30
2019-03-12T12:43:55.306Z,18.90
2019-03-12T12:46:00.472Z,19.30
2019-03-12T12:48:05.677Z,19.20
2019-03-12T12:50:11.295Z,18.70
2019-03-12T12:52:16.569Z,17.00
2019-03-12T12:54:21.792Z,17.40
2019-03-12T12:56:26.931Z,17.70
2019-03-12T12:58:32.136Z,18.70
2019-03-12T13:00:38.496Z,16.60
2019-03-12T13:02:43.982Z,16.90
2019-03-12T13:04:49.135Z,17.60
2019-03-12T13:06:54.291Z,16.80
2019-03-12T13:08:59.458Z,17.80
2019-03-12T13:11:04.618Z,19.30
2019-03-12T13:13:09.881Z,18.20
2019-03-12T13:15:15.136Z,19.00
2019-03-12T13:17:20.295Z,20.40
2019-03-12T13:19:25.463Z,20.90
2019-03-12T13:21:30.632Z,20.50
2019-03-12T13:23:36.310Z,18.90
2019-03-12T13:25:41.743Z,17.40
2019-03-12T13:27:47.235Z,18.70
2019-03-12T13:29:52.391Z,17.70
2019-03-12T13:31:57.667Z,17.70
2019-03-12T13:34:02.926Z,18.30
2019-03-12T13:36:13.266Z,18.50
2019-03-12T13:38:18.584Z,19.60
2019-03-12T13:40:24.443Z,18.90
2019-03-12T13:42:29.914Z,19.80
2019-03-12T13:44:35.139Z,20.00
2019-03-12T13:46:40.297Z,17.80
2019-03-12T13:48:45.546Z,17.90
2019-03-12T13:50:50.786Z,17.00
2019-03-12T13:52:56.126Z,17.10
2019-03-12T13:55:02.470Z,17.30
2019-03-12T13:57:08.050Z,16.90
2019-03-12T13:59:13.290Z,17.90
2019-03-12T14:01:18.467Z,18.50
2019-03-12T14:03:23.592Z,18.90
2019-03-12T14:05:28.753Z,17.40
2019-03-12T14:07:33.930Z,17.10
2019-03-12T14:09:39.150Z,17.10
2019-03-12T14:11:44.370Z,17.90
2019-03-12T14:13:49.516Z,18.50
2019-03-12T14:15:54.706Z,17.80
2019-03-12T14:18:02.062Z,17.50
2019-03-12T14:20:27.714Z,17.10
2019-03-12T14:22:32.889Z,17.20
2019-03-12T14:24:38.083Z,16.60
2019-03-12T14:26:43.367Z,16.00
2019-03-12T14:28:48.523Z,16.60
2019-03-12T14:30:53.709Z,15.70
2019-03-12T14:32:58.900Z,14.90
2019-03-12T14:35:04.575Z,15.50
2019-03-12T14:37:10.032Z,15.50
2019-03-12T14:39:15.363Z,16.40
2019-03-12T14:41:20.647Z,15.80
2019-03-12T14:43:26.021Z,14.90
2019-03-12T14:45:32.056Z,15.40
2019-03-12T14:47:37.549Z,15.60
2019-03-12T14:49:42.983Z,14.60
2019-03-12T14:52:01.352Z,15.10
2019-03-12T14:54:07.098Z,14.50
2019-03-12T14:56:12.590Z,15.30
2019-03-12T14:58:18.048Z,14.80
2019-03-12T15:00:24.366Z,13.80
2019-03-12T15:02:29.807Z,13.50
2019-03-12T15:04:35.242Z,13.10
2019-03-12T15:06:40.643Z,11.60
2019-03-12T15:08:46.105Z,10.70
2019-03-12T15:10:51.601Z,10.80
2019-03-12T15:12:57.039Z,10.70
2019-03-12T15:15:08.403Z,10.40
2019-03-12T15:17:13.803Z,10.30
2019-03-12T15:19:19.242Z,10.10
2019-03-12T15:21:24.662Z,10.00
2019-03-12T15:23:30.057Z,9.90
2019-03-12T15:25:35.477Z,9.70
2019-03-12T15:27:40.914Z,9.50
2019-03-12T15:29:46.406Z,9.50
2019-03-12T15:32:03.665Z,9.40
2019-03-12T15:33:59.015Z,9.40
2019-03-12T15:36:04.422Z,9.20
2019-03-12T15:38:12.346Z,9.10
2019-03-12T15:40:17.770Z,9.00
2019-03-12T15:42:23.210Z,9.00
2019-03-12T15:44:28.658Z,8.80
2019-03-12T15:46:34.083Z,8.70
2019-03-12T15:48:39.569Z,8.50
2019-03-12T15:50:45.063Z,8.30
2019-03-12T15:52:50.571Z,8.10
2019-03-12T15:54:56.022Z,7.80
2019-03-12T15:57:01.508Z,7.70
2019-03-12T15:59:06.908Z,7.50
2019-03-12T16:01:12.398Z,7.30
2019-03-12T16:03:17.889Z,6.80
2019-03-12T16:05:23.382Z,6.40
2019-03-12T16:07:28.920Z,6.20
2019-03-12T16:09:34.410Z,6.10
2019-03-12T16:11:39.967Z,6.10
2019-03-12T16:13:45.479Z,6.10
2019-03-12T16:15:50.915Z,5.90
2019-03-12T16:17:56.340Z,5.90
2019-03-12T16:20:01.763Z,5.80
2019-03-12T16:22:07.275Z,5.40
2019-03-12T16:24:12.690Z,5.20
2019-03-12T16:26:18.103Z,5.20
2019-03-12T16:28:23.718Z,5.00
2019-03-12T16:30:29.190Z,4.60
2019-03-12T16:32:35.493Z,4.60
2019-03-12T16:34:41.214Z,4.50
2019-03-12T16:36:46.738Z,4.40
2019-03-12T16:38:53.854Z,4.30
2019-03-12T16:40:59.355Z,4.10
2019-03-12T16:43:04.768Z,3.80
2019-03-12T16:45:10.291Z,3.70
2019-03-12T16:47:15.828Z,3.70
2019-03-12T16:49:21.251Z,3.50
2019-03-12T16:51:26.785Z,3.50
2019-03-12T16:53:32.235Z,3.20
2019-03-12T16:55:37.674Z,3.20
2019-03-12T16:57:43.086Z,3.10
2019-03-12T16:59:48.592Z,3.10
2019-03-12T17:01:54.026Z,3.20
2019-03-12T17:03:59.438Z,2.90
2019-03-12T17:06:04.908Z,2.70
2019-03-12T17:08:10.331Z,2.50
2019-03-12T17:10:18.938Z,2.50
2019-03-12T17:12:24.406Z,2.50
2019-03-12T17:14:38.846Z,2.40
2019-03-12T17:16:37.140Z,2.20
2019-03-12T17:18:45.454Z,2.20
2019-03-12T17:20:50.918Z,2.00
2019-03-12T17:22:56.325Z,1.90
2019-03-12T17:25:01.869Z,2.00
2019-03-12T17:27:07.343Z,1.90
2019-03-12T17:29:12.839Z,1.60
2019-03-12T17:31:18.315Z,1.60
2019-03-12T17:33:23.771Z,1.50
2019-03-12T17:35:29.462Z,1.40
2019-03-12T17:37:35.086Z,1.40
2019-03-12T17:39:42.351Z,1.20
2019-03-12T17:41:47.847Z,1.20
2019-03-12T17:43:53.342Z,1.00
2019-03-12T17:45:58.828Z,1.00
2019-03-12T17:48:04.267Z,1.00
2019-03-12T17:50:10.838Z,1.00
2019-03-12T17:52:16.309Z,0.90
2019-03-12T17:54:21.720Z,0.90
2019-03-12T17:56:27.238Z,0.80
2019-03-12T17:58:32.666Z,0.70
2019-03-12T18:00:39.737Z,0.70
2019-03-12T18:02:45.287Z,0.70
2019-03-12T18:04:50.782Z,0.70
2019-03-12T18:06:56.170Z,0.60
2019-03-12T18:09:01.660Z,0.60
2019-03-12T18:11:07.174Z,0.50
2019-03-12T18:13:12.672Z,0.40
2019-03-12T18:15:19.569Z,0.40
2019-03-12T18:17:27.575Z,0.30
2019-03-12T18:19:33.052Z,0.20
2019-03-12T18:21:38.587Z,0.10
2019-03-12T18:23:44.039Z,0.10
2019-03-12T18:25:49.823Z,0.00
2019-03-12T18:27:55.328Z,-0.10
2019-03-12T18:30:00.842Z,-0.10
2019-03-12T18:32:07.965Z,-0.20
2019-03-12T18:34:15.152Z,-0.20
2019-03-12T18:36:21.547Z,-0.30
2019-03-12T18:38:27.167Z,-0.10
2019-03-12T18:40:32.766Z,0.00
2019-03-12T18:42:38.334Z,0.70
2019-03-12T18:44:43.831Z,0.20
2019-03-12T18:46:49.250Z,0.20
2019-03-12T18:48:54.745Z,0.10
2019-03-12T18:51:00.260Z,0.00
2019-03-12T18:53:05.915Z,-0.20
2019-03-12T18:55:38.424Z,0.00
2019-03-12T18:57:44.336Z,-0.20
2019-03-12T18:59:49.779Z,0.00
2019-03-12T19:01:55.391Z,0.10
2019-03-12T19:04:00.934Z,-0.10
2019-03-12T19:06:09.787Z,-0.10
2019-03-12T19:08:13.771Z,-0.30
2019-03-12T19:10:20.057Z,-0.20
2019-03-12T19:12:26.456Z,0.00
2019-03-12T19:14:35.389Z,0.00
2019-03-12T19:16:41.308Z,0.00
2019-03-12T19:18:47.342Z,0.10
2019-03-12T19:20:54.926Z,-0.20
2019-03-12T19:23:01.131Z,-0.30
2019-03-12T19:25:06.847Z,-0.40
2019-03-12T19:27:12.966Z,-0.40
2019-03-12T19:29:18.726Z,-0.40
2019-03-12T19:31:42.349Z,-0.30
2019-03-12T19:33:48.658Z,-0.30
2019-03-12T19:35:54.130Z,-0.50
2019-03-12T19:37:59.722Z,-0.60
2019-03-12T19:40:06.468Z,-0.60
2019-03-12T19:42:14.477Z,-0.50
2019-03-12T19:44:26.012Z,-0.50
2019-03-12T19:46:32.281Z,-0.60
2019-03-12T19:48:41.340Z,-0.70
2019-03-12T19:50:47.573Z,-0.60
2019-03-12T19:52:53.663Z,-0.60
2019-03-12T19:54:59.525Z,-0.30
2019-03-12T19:57:08.356Z,-0.30
2019-03-12T19:59:13.866Z,-0.40
2019-03-12T20:01:20.472Z,-0.50
2019-03-12T20:03:26.034Z,-0.40
2019-03-12T20:05:32.097Z,-0.40
2019-03-12T20:07:37.563Z,-0.40
2019-03-12T20:10:15.012Z,-0.40
2019-03-12T20:13:13.080Z,-0.30
2019-03-12T20:15:54.718Z,-0.10
2019-03-12T20:18:56.218Z,-0.30
2019-03-12T20:21:39.607Z,-0.30
2019-03-12T20:24:41.059Z,-0.40
2019-03-12T20:27:23.566Z,-0.70
2019-03-12T20:30:03.270Z,-0.80
2019-03-12T20:32:48.877Z,-0.60
2019-03-12T20:35:27.711Z,-0.30
2019-03-12T20:38:23.890Z,-0.50
2019-03-12T20:41:18.789Z,-0.60
2019-03-12T20:44:23.905Z,-0.80
2019-03-12T20:47:16.716Z,-0.90
2019-03-12T20:49:57.913Z,-1.10
2019-03-12T20:52:49.455Z,-1.00
2019-03-12T20:55:25.309Z,-1.10
2019-03-12T20:58:13.724Z,-1.00
2019-03-12T21:01:11.770Z,-1.10
2019-03-12T21:03:53.527Z,-1.10
2019-03-12T21:06:54.290Z,-1.20
2019-03-12T21:09:43.817Z,-1.20
2019-03-12T21:12:30.390Z,-1.50
2019-03-12T21:15:14.381Z,-1.30
2019-03-12T21:18:11.637Z,-1.30
2019-03-12T21:21:01.150Z,-1.30
2019-03-12T21:23:50.643Z,-1.40
2019-03-12T21:26:33.302Z,-1.50
2019-03-12T21:29:51.167Z,-1.60
2019-03-12T21:31:59.734Z,-1.60
2019-03-12T21:34:05.472Z,-1.70
2019-03-12T21:36:11.538Z,-1.80
2019-03-12T21:38:17.296Z,-1.80
2019-03-12T21:40:25.638Z,-1.80
2019-03-12T21:42:31.623Z,-1.80
2019-03-12T21:44:37.209Z,-1.90
2019-03-12T21:46:42.891Z,-1.90
2019-03-12T21:48:48.462Z,-1.80
2019-03-12T21:50:53.999Z,-1.80
2019-03-12T21:52:59.487Z,-1.80
2019-03-12T21:55:05.642Z,-1.90
2019-03-12T21:57:18.144Z,-1.90
2019-03-12T21:59:24.007Z,-1.90
2019-03-12T22:01:29.424Z,-1.90
2019-03-12T22:03:34.842Z,-2.00
2019-03-12T22:05:40.265Z,-2.00
2019-03-12T22:07:45.742Z,-2.00
2019-03-12T22:09:51.219Z,-2.00
2019-03-12T22:11:56.747Z,-2.00
2019-03-12T22:14:02.261Z,-2.10
2019-03-12T22:16:07.826Z,-2.20
2019-03-12T22:18:13.263Z,-2.20
2019-03-12T22:20:18.737Z,-2.20
2019-03-12T22:22:43.274Z,-2.20
2019-03-12T22:24:49.211Z,-2.20
2019-03-12T22:26:54.827Z,-2.30
2019-03-12T22:29:00.262Z,-2.20
2019-03-12T22:31:05.707Z,-2.20
2019-03-12T22:33:11.188Z,-2.10
2019-03-12T22:35:16.626Z,-2.10
2019-03-12T22:37:22.148Z,-2.00
2019-03-12T22:39:28.771Z,-2.00
2019-03-12T22:41:34.186Z,-2.00
2019-03-12T22:43:39.691Z,-2.00
2019-03-12T22:45:45.467Z,-2.00
2019-03-12T22:47:51.146Z,-2.10
2019-03-12T22:49:56.561Z,-2.00
2019-03-12T22:52:02.024Z,-2.10
2019-03-12T22:54:07.467Z,-2.10
2019-03-12T22:56:12.972Z,-2.10
2019-03-12T22:58:18.482Z,-2.00
2019-03-12T23:00:23.912Z,-2.10
2019-03-12T23:02:32.564Z,-2.10
2019-03-12T23:04:37.995Z,-2.10
2019-03-12T23:06:43.602Z,-1.90
2019-03-12T23:08:49.042Z,-1.90
2019-03-12T23:10:54.447Z,-1.80
2019-03-12T23:12:59.866Z,-1.90
2019-03-12T23:15:06.509Z,-2.00
2019-03-12T23:17:12.289Z,-2.10
2019-03-12T23:19:18.427Z,-2.30
2019-03-12T23:21:24.595Z,-2.20
2019-03-12T23:23:31.749Z,-2.20
2019-03-12T23:25:37.289Z,-2.20
2019-03-12T23:27:43.186Z,-2.10
2019-03-12T23:29:48.710Z,-2.10
2019-03-12T23:31:54.262Z,-2.20
2019-03-12T23:34:00.229Z,-2.10
2019-03-12T23:36:05.703Z,-2.20
2019-03-12T23:38:11.257Z,-2.30
2019-03-12T23:40:18.030Z,-2.20
2019-03-12T23:42:24.494Z,-2.10
2019-03-12T23:44:32.959Z,-2.00
2019-03-12T23:46:38.531Z,-2.00
2019-03-12T23:48:44.161Z,-1.90
2019-03-12T23:50:52.015Z,-1.80
2019-03-12T23:53:00.553Z,-1.80
2019-03-12T23:55:07.043Z,-1.80
2019-03-12T23:57:17.167Z,-1.80
2019-03-12T23:59:22.839Z,-1.80
